首页
METAR-TAF:

METAR-TAF

机场 :

果阿國際機場

帕纳吉, 印度

纬度: 15-22-51N, 经度: 073-49-53E, 海拔: 56米

当前天气观测

该预报发布于59分钟前的14:00 UTC
风速3节,风向南转西南
温度 28°C
湿度 89%
气压 1007 hPa
能見度: 6000
散云层高于2000英尺
少量云层高于8000英尺

METAR: VOGO 171400Z 20003KT 6000 SCT020 FEW080 28/26 Q1007 NOSIG

时间: 20:29 (14:59 UTC)

预报

该预报发布于3小时和59分钟前的11:00 UTC
预报有效从17日的 12点(UTC)到 17日的 21点(UTC)
风速8节,风向西南
能見度: 6000
散云层高于2000英尺
短暂存在
从 17日的 15点(UTC)到 17日的 19点(UTC)
能見度: 3000
少量云层高于800英尺
散云层高于1500英尺
多云层高于7000英尺
成为
从 17日的 14点(UTC)到 17日的 16点(UTC)
风速7节,风向东转东南

TAF: VOGO 171100Z 1712/1721 23008KT 6000 SCT020 TEMPO 1715/1719 3000 RA FEW008 SCT015 BKN070 BECMG 1714/1716 12007KT

超过4000个机场的气象观测和天气预报(METAR&TAF报告)。

可查询的气象台以黄色和红色小点在地图上表示。

将鼠标移到小点上方,可查看气象台名称。

然后点击查看天气观测和预报。

如需切换地图:点击带黑十字的绿色按钮放大地图;点击带横线的绿色按钮缩小地图;或者点击绿色箭头查看邻近地区的地图。


METAR-TAF: